• Join FlightAware (Why Join?)
  • Login
  • US Flag 
06:21AM EDT


 

Airport Tracker/Info


-or-


 

Live Flight TrackerFlight Track Log ✈ N2831T ✈ 11-Nov-2013 ✈ KCGE - KHEF

Flight Track Log - Related Links

Times and Time Zones

All times are in EST time to prevent confusion due to time zone crossing. See the N2831T flight status page for this flight to view local times or setup timezone preferences in your user account.

Time Position Orientation Groundspeed Altitude Reporting Facility
EST Latitude Longitude Course Direction KTS MPH feet Rate Location/Type
11:40AM 38.9786 -76.5156 231° Southwest 89 102 2,100  Level Washington Center
11:40AM 38.9703 -76.5289 231° Southwest 91 105 2,100 -120 Level Washington Center
11:41AM 38.9617 -76.5606 251° West 89 102 2,000 60 Descending Washington Center
11:43AM 38.9930 -76.5742 341° North  Level FlightAware Approximate
11:50AM 38.9182 -76.8364 299° West  Level Estimated
11:51AM 38.9482 -76.8465 345° North  Level FlightAware Approximate
11:52AM 38.9782 -76.8567 345° North  Level FlightAware Approximate
11:53AM 39.0082 -76.8669 345° North  Level FlightAware Approximate
11:54AM 39.0382 -76.8771 345° North  Level FlightAware Approximate
11:55AM 39.0681 -76.8874 345° North  Level FlightAware Approximate
11:56AM 39.0981 -76.8976 345° North  Level FlightAware Approximate
11:57AM 39.0791 -76.9291 303° West  Level Estimated
11:58AM 39.1086 -76.9412 342° North  Level FlightAware Approximate
11:59AM 39.0884 -76.9715 276° West  Level Estimated
12:00PM 39.1123 -76.9968 321° Northwest  Level FlightAware Approximate
12:01PM 39.1363 -77.0223 321° Northwest  Level FlightAware Approximate
12:02PM 39.1602 -77.0477 321° Northwest  Level FlightAware Approximate
12:03PM 39.1842 -77.0731 321° Northwest  Level FlightAware Approximate
12:04PM 39.1593 -77.0971 274° West  Level Estimated
12:05PM 39.1707 -77.1342 292° West  Level FlightAware Approximate
12:06PM 39.1822 -77.1714 292° West  Level FlightAware Approximate
12:07PM 39.1936 -77.2086 292° West  Level FlightAware Approximate
12:08PM 39.2051 -77.2458 292° West  Level FlightAware Approximate
12:09PM 39.2165 -77.2831 292° West  Level FlightAware Approximate
12:10PM 39.2279 -77.3203 292° West  Level FlightAware Approximate
12:11PM 39.2393 -77.3576 292° West  Level FlightAware Approximate
12:12PM 39.2506 -77.3948 292° West  Level FlightAware Approximate
12:13PM 39.2620 -77.4321 292° West  Level FlightAware Approximate
12:14PM 39.2733 -77.4694 291° West  Level FlightAware Approximate
12:15PM 39.2847 -77.5067 291° West  Level FlightAware Approximate
12:16PM 39.2960 -77.5440 291° West  Level FlightAware Approximate
12:17PM 39.3073 -77.5814 291° West  Level FlightAware Approximate
12:18PM 39.3186 -77.6187 291° West  Level FlightAware Approximate
12:19PM 39.2879 -77.6133 160° South  Level Estimated
12:20PM 39.2587 -77.6268 200° South  Level FlightAware Approximate
12:21PM 39.2295 -77.6403 200° South  Level FlightAware Approximate
12:22PM 39.2003 -77.6538 200° South  Level FlightAware Approximate
12:23PM 39.1711 -77.6673 200° South  Level FlightAware Approximate
12:24PM 39.1399 -77.6567 165° South  Level Estimated
12:25PM 39.1087 -77.6461 165° South  Level Estimated
12:26PM 39.0775 -77.6355 165° South  Level Estimated
12:27PM 39.0463 -77.6249 165° South  Level Estimated
12:28PM 39.0151 -77.6143 165° South  Level Estimated
12:29PM 38.9839 -77.6038 165° South  Level Estimated
12:30PM 38.9527 -77.5932 165° South  Level Estimated
12:30PM 38.2936 -76.3694 165° South 122 140 7,000  Level Washington Center
12:30PM 38.2831 -76.3878 234° Southwest 126 145 4,000 -1,800 Descending Washington Center
12:31PM 38.9216 -77.5827 165° South  Level Estimated
12:31PM 38.2642 -76.4194 233° Southwest 116 133 4,000  Level Washington Center
12:32PM 38.8904 -77.5721 165° South  Level Estimated
12:32PM 38.2472 -76.4508 236° Southwest 105 121 7,000  Level Washington Center
12:33PM 38.8592 -77.5616 165° South  Level Estimated
12:33PM 38.2261 -76.4797 227° Southwest 124 143 4,100  Level Washington Center
12:34PM 38.8280 -77.5511 165° South  Level Estimated
12:34PM 38.2031 -76.5111 227° Southwest 117 135 4,100  Level Washington Center
12:35PM 38.7968 -77.5406 165° South  Level Estimated
12:35PM 38.1842 -76.5400 230° Southwest 114 131 4,000  Level Washington Center
12:36PM 38.1631 -76.5742 232° Southwest 114 131 4,100  Climbing Washington Center
12:37PM 38.1397 -76.6081 229° Southwest 114 131 4,100 -60 Level Washington Center
12:38PM 38.1353 -76.6425 261° West 116 133 4,000 -60 Descending Washington Center
12:39PM 38.1264 -76.6897 257° West 116 133 4,000  Level Washington Center
12:40PM 38.1219 -76.7267 261° West 113 130 4,000 -60 Level Washington Center
12:41PM 38.1153 -76.7661 258° West 112 129 3,900 -60 Descending Washington Center
12:42PM 38.1067 -76.8056 255° West 109 125 3,900  Level Washington Center
12:43PM 38.1022 -76.8372 260° West 107 123 4,000 60 Climbing Washington Center
12:45PM 38.0975 -76.8767 261° West 106 122 4,100  Climbing Washington Center
12:46PM 38.0931 -76.9161 262° West 109 125 4,100 -60 Level Washington Center
12:47PM 38.0861 -76.9556 257° West 111 128 4,000 120 Descending Washington Center
12:48PM 38.0858 -76.9925 269° West 107 123 4,400 420 Climbing Washington Center
12:49PM 38.0917 -77.0217 284° West 89 102 4,900 300 Climbing Washington Center
12:50PM 38.1103 -77.0406 321° Northwest 84 97 5,100  Climbing Washington Center
12:51PM 38.1328 -77.0700 314° West 109 125 5,000 -60 Descending Washington Center
12:52PM 38.1533 -77.0994 312° West 116 133 5,000  Level Washington Center
12:53PM 38.1781 -77.1264 319° Northwest 113 130 5,000  Level Washington Center
12:54PM 38.2025 -77.1614 312° West 113 130 5,000  Level Washington Center
12:55PM 38.2253 -77.1881 317° Northwest 114 131 5,000  Level Washington Center
12:56PM 38.2500 -77.2125 322° Northwest 112 129 5,100  Climbing Washington Center
12:57PM 38.2683 -77.2394 311° West 110 127 5,000 -60 Descending Washington Center
12:58PM 38.2931 -77.2664 319° Northwest 105 121 5,000 -240 Level Washington Center
12:59PM 38.3156 -77.2933 317° Northwest 108 124 4,500 -480 Descending Washington Center
01:00PM 38.3442 -77.3283 316° Northwest 119 137 4,000 -240 Descending Washington Center
01:01PM 38.3647 -77.3500 320° Northwest 118 136 4,100 -60 Climbing Washington Center
01:02PM 38.3958 -77.3614 344° North 128 147 3,900 -420 Descending Washington Center
01:03PM 38.4314 -77.3569 North 128 147 3,400 -480 Descending Washington Center
01:04PM 38.4667 -77.3603 356° North 132 152 3,000 -240 Descending Washington Center
01:05PM 38.4981 -77.3639 355° North 125 144 3,000  Level Washington Center
01:06PM 38.5333 -77.3672 356° North 127 146 3,100 -180 Climbing Washington Center
01:07PM 38.5731 -77.3683 359° North 131 151 2,700 -360 Descending Washington Center
01:08PM 38.6083 -77.3769 349° North 133 153 2,400 -300 Descending Washington Center
01:09PM 38.6394 -77.3911 340° North 124 143 2,100 120 Descending Washington Center
01:11PM 38.6615 -77.4246 349° North  Level Estimated
01:16PM 38.4667 -76.4000 349° North 144 166 3,800  Level Potomac TRACON
01:17PM 38.4667 -76.4000 180° South 144 166 3,800  Level Potomac TRACON
01:18PM 38.7167 -77.5000 349° North  Level FlightAware Approximate
01:19PM 38.7210 -77.5151 349° North  Level Estimated
01:19PM 38.4667 -76.4000 180° South 144 166 3,800  Level Potomac TRACON
01:20PM 38.7210 -77.5151 349° North  Level Estimated
01:21PM 38.7210 -77.5151 349° North  Level Estimated
01:21PM 38.4667 -76.4000 180° South 144 166 3,800  Level Potomac TRACON
01:23PM 38.4667 -76.4000 180° South 144 166 3,800  Level Potomac TRACON
01:25PM 38.4667 -76.4000 180° South 144 166 3,800  Level Potomac TRACON
01:27PM 38.4667 -76.4000 180° South 144 166 3,800  Level Potomac TRACON
01:29PM 38.4667 -76.4000 180° South 144 166 3,800  Level Potomac TRACON
01:31PM 38.4667 -76.4000 180° South 144 166 3,800  Level Potomac TRACON